createdAt,value
2022-09-15T00:01:00.908Z,100277.13
2022-09-15T00:03:28.463Z,100287.88
2022-09-15T00:05:55.155Z,100281.25
2022-09-15T00:08:22.638Z,100276.56
2022-09-15T00:10:53.526Z,100274.63
2022-09-15T00:13:21.403Z,100272.88
2022-09-15T00:15:48.314Z,100273.09
2022-09-15T00:18:15.026Z,100266.41
2022-09-15T00:20:43.285Z,100266.59
2022-09-15T00:23:11.373Z,100267.47
2022-09-15T00:25:50.956Z,100258.44
2022-09-15T00:28:19.649Z,100255.50
2022-09-15T00:30:49.754Z,100254.63
2022-09-15T00:33:17.519Z,100245.34
2022-09-15T00:35:46.391Z,100228.13
2022-09-15T00:38:14.421Z,100229.88
2022-09-15T00:40:50.140Z,100234.91
2022-09-15T00:43:19.206Z,100244.44
2022-09-15T00:45:45.946Z,100255.44
2022-09-15T00:48:18.659Z,100267.06
2022-09-15T00:50:51.903Z,100261.00
2022-09-15T00:53:20.770Z,100251.78
2022-09-15T00:55:49.742Z,100260.00
2022-09-15T00:58:25.665Z,100277.34
2022-09-15T01:00:58.153Z,100285.63
2022-09-15T01:03:26.477Z,100262.69
2022-09-15T01:06:02.097Z,100254.19
2022-09-15T01:08:34.891Z,100251.50
2022-09-15T01:11:02.726Z,100244.78
2022-09-15T01:13:29.805Z,100237.84
2022-09-15T01:16:30.863Z,100255.22
2022-09-15T01:19:18.572Z,100265.16
2022-09-15T01:22:17.371Z,100269.53
2022-09-15T01:24:59.595Z,100292.25
2022-09-15T01:27:58.136Z,100305.47
2022-09-15T01:30:25.265Z,100310.09
2022-09-15T01:33:25.860Z,100306.56
2022-09-15T01:36:12.583Z,100293.44
2022-09-15T01:39:01.056Z,100287.84
2022-09-15T01:41:29.669Z,100275.97
2022-09-15T01:43:58.862Z,100264.34
2022-09-15T01:46:29.634Z,100254.41
2022-09-15T01:49:00.456Z,100252.00
2022-09-15T01:51:27.955Z,100243.00
2022-09-15T01:53:56.446Z,100245.88
2022-09-15T01:56:22.890Z,100242.88
2022-09-15T01:58:51.249Z,100226.78
2022-09-15T02:02:07.933Z,100229.63
2022-09-15T02:04:48.526Z,100214.13
2022-09-15T02:07:20.706Z,100220.66
2022-09-15T02:09:58.946Z,100222.22
2022-09-15T02:12:52.023Z,100211.06
2022-09-15T02:15:33.377Z,100192.09
2022-09-15T02:18:02.635Z,100209.16
2022-09-15T02:20:48.503Z,100190.59
2022-09-15T02:23:25.190Z,100182.19
2022-09-15T02:25:57.035Z,100196.84
2022-09-15T02:28:30.104Z,100199.75
2022-09-15T02:30:59.183Z,100194.47
2022-09-15T02:33:32.224Z,100194.19
2022-09-15T02:35:59.794Z,100197.06
2022-09-15T02:38:30.920Z,100181.28
2022-09-15T02:40:57.386Z,100160.41
2022-09-15T02:43:24.190Z,100160.69
2022-09-15T02:45:50.837Z,100152.22
2022-09-15T02:48:17.747Z,100139.50
2022-09-15T02:50:44.293Z,100122.66
2022-09-15T02:53:10.746Z,100102.50
2022-09-15T02:55:37.233Z,100092.56
2022-09-15T02:58:03.879Z,100073.28
2022-09-15T03:00:31.188Z,100063.16
2022-09-15T03:02:58.360Z,100073.00
2022-09-15T03:05:28.530Z,100105.50
2022-09-15T03:07:55.846Z,100102.19
2022-09-15T03:10:24.075Z,100094.53
2022-09-15T03:12:52.999Z,100104.91
2022-09-15T03:15:22.020Z,100106.50
2022-09-15T03:17:48.855Z,100110.44
2022-09-15T03:20:18.617Z,100123.63
2022-09-15T03:22:45.122Z,100125.06
2022-09-15T03:25:11.989Z,100132.00
2022-09-15T03:27:38.568Z,100126.22
2022-09-15T03:30:06.715Z,100125.91
2022-09-15T03:32:33.239Z,100116.94
2022-09-15T03:35:00.087Z,100110.69
2022-09-15T03:37:26.991Z,100098.25
2022-09-15T03:39:53.573Z,100083.22
2022-09-15T03:42:20.330Z,100089.06
2022-09-15T03:44:46.986Z,100089.31
2022-09-15T03:47:13.560Z,100072.34
2022-09-15T03:49:40.056Z,100065.47
2022-09-15T03:52:06.538Z,100062.78
2022-09-15T03:54:32.958Z,100064.97
2022-09-15T03:56:59.458Z,100066.22
2022-09-15T03:59:25.950Z,100062.16
2022-09-15T04:01:52.507Z,100050.16
2022-09-15T04:04:19.168Z,100052.97
2022-09-15T04:06:45.882Z,100049.41
2022-09-15T04:09:12.389Z,100053.81
2022-09-15T04:11:40.444Z,100057.72
2022-09-15T04:14:06.960Z,100061.81
2022-09-15T04:16:33.995Z,100068.47
2022-09-15T04:19:00.847Z,100072.78
2022-09-15T04:21:27.336Z,100066.50
2022-09-15T04:23:54.674Z,100061.75
2022-09-15T04:26:35.350Z,100060.75
2022-09-15T04:29:04.855Z,100071.53
2022-09-15T04:31:33.150Z,100083.13
2022-09-15T04:33:59.884Z,100081.41
2022-09-15T04:36:28.504Z,100104.97
2022-09-15T04:38:55.796Z,100101.91
2022-09-15T04:41:22.802Z,100106.34
2022-09-15T04:43:49.793Z,100099.06
2022-09-15T04:46:17.019Z,100113.00
2022-09-15T04:48:45.975Z,100118.06
2022-09-15T04:51:16.004Z,100106.94
2022-09-15T04:53:42.596Z,100112.34
2022-09-15T04:56:12.030Z,100112.19
2022-09-15T04:58:40.356Z,100120.28
2022-09-15T05:01:08.921Z,100119.69
2022-09-15T05:03:37.551Z,100120.72
2022-09-15T05:06:05.958Z,100115.19
2022-09-15T05:08:32.487Z,100114.59
2022-09-15T05:11:05.316Z,100117.94
2022-09-15T05:13:31.873Z,100115.84
2022-09-15T05:16:05.143Z,100120.44
2022-09-15T05:18:31.921Z,100120.16
2022-09-15T05:21:00.147Z,100119.47
2022-09-15T05:23:26.762Z,100126.94
2022-09-15T05:25:58.109Z,100137.72
2022-09-15T05:28:25.168Z,100118.75
2022-09-15T05:30:52.968Z,100112.06
2022-09-15T05:33:23.671Z,100123.16
2022-09-15T05:35:55.290Z,100127.44
2022-09-15T05:38:21.950Z,100125.06
2022-09-15T05:40:48.899Z,100125.50
2022-09-15T05:43:16.551Z,100119.66
2022-09-15T05:45:43.722Z,100129.28
2022-09-15T05:48:13.119Z,100136.00
2022-09-15T05:50:48.345Z,100124.06
2022-09-15T05:53:15.579Z,100140.78
2022-09-15T05:55:42.108Z,100139.84
2022-09-15T05:58:08.670Z,100141.69
2022-09-15T06:00:35.871Z,100140.53
2022-09-15T06:03:02.810Z,100150.00
2022-09-15T06:05:29.431Z,100152.94
2022-09-15T06:07:56.777Z,100160.31
2022-09-15T06:10:25.019Z,100149.16
2022-09-15T06:12:55.324Z,100150.97
2022-09-15T06:15:23.275Z,100163.03
2022-09-15T06:17:49.855Z,100160.69
2022-09-15T06:20:17.528Z,100164.78
2022-09-15T06:22:47.473Z,100163.97
2022-09-15T06:25:14.357Z,100173.72
2022-09-15T06:27:42.018Z,100167.13
2022-09-15T06:30:09.822Z,100171.81
2022-09-15T06:32:36.864Z,100169.81
2022-09-15T06:35:07.145Z,100167.22
2022-09-15T06:37:34.711Z,100173.53
2022-09-15T06:40:01.862Z,100183.50
2022-09-15T06:42:28.515Z,100180.13
2022-09-15T06:44:55.030Z,100187.88
2022-09-15T06:47:21.479Z,100179.03
2022-09-15T06:49:48.060Z,100166.78
2022-09-15T06:52:14.524Z,100182.22
2022-09-15T06:54:40.956Z,100180.25
2022-09-15T06:57:08.601Z,100171.16
2022-09-15T06:59:35.056Z,100183.13
2022-09-15T07:02:05.097Z,100191.13
2022-09-15T07:04:35.849Z,100181.69
2022-09-15T07:07:02.348Z,100182.88
2022-09-15T07:09:28.821Z,100183.81
2022-09-15T07:11:55.258Z,100172.41
2022-09-15T07:14:21.771Z,100172.31
2022-09-15T07:16:48.380Z,100184.53
2022-09-15T07:19:14.892Z,100192.63
2022-09-15T07:21:41.362Z,100190.78
2022-09-15T07:24:08.319Z,100188.97
2022-09-15T07:26:34.923Z,100177.13
2022-09-15T07:29:04.621Z,100179.91
2022-09-15T07:31:33.540Z,100162.03
2022-09-15T07:34:01.069Z,100175.59
2022-09-15T07:36:28.121Z,100177.25
2022-09-15T07:38:54.579Z,100181.69
2022-09-15T07:41:23.941Z,100171.97
2022-09-15T07:43:56.120Z,100176.56
2022-09-15T07:46:24.279Z,100167.31
2022-09-15T07:48:54.600Z,100156.28
2022-09-15T07:51:21.092Z,100160.03
2022-09-15T07:53:48.286Z,100140.13
2022-09-15T07:56:18.363Z,100141.53
2022-09-15T07:58:46.017Z,100149.06
2022-09-15T08:01:14.807Z,100155.63
2022-09-15T08:03:46.355Z,100164.63
2022-09-15T08:06:13.395Z,100168.44
2022-09-15T08:08:41.115Z,100158.97
2022-09-15T08:11:09.271Z,100159.28
2022-09-15T08:13:35.990Z,100159.50
2022-09-15T08:16:07.923Z,100160.81
2022-09-15T08:18:35.236Z,100159.03
2022-09-15T08:21:13.686Z,100159.56
2022-09-15T08:23:40.676Z,100155.41
2022-09-15T08:26:13.604Z,100152.41
2022-09-15T08:28:40.784Z,100153.19
2022-09-15T08:31:09.123Z,100161.03
2022-09-15T08:33:36.566Z,100155.13
2022-09-15T08:36:06.219Z,100168.13
2022-09-15T08:38:33.595Z,100163.53
2022-09-15T08:41:06.471Z,100171.13
2022-09-15T08:43:42.602Z,100156.72
2022-09-15T08:46:16.003Z,100144.69
2022-09-15T08:48:50.003Z,100154.31
2022-09-15T08:51:24.497Z,100149.31
2022-09-15T08:53:59.686Z,100153.84
2022-09-15T08:56:28.763Z,100151.19
2022-09-15T08:58:55.357Z,100154.69
2022-09-15T09:01:56.960Z,100157.81
2022-09-15T09:04:34.661Z,100156.88
2022-09-15T09:07:28.203Z,100132.06
2022-09-15T09:10:11.341Z,100126.31
2022-09-15T09:12:46.653Z,100123.91
2022-09-15T09:15:21.418Z,100122.94
2022-09-15T09:17:53.479Z,100127.59
2022-09-15T09:20:44.633Z,100125.28
2022-09-15T09:23:15.291Z,100124.41
2022-09-15T09:25:43.764Z,100117.16
2022-09-15T09:28:30.014Z,100116.63
2022-09-15T09:31:01.677Z,100108.97
2022-09-15T09:33:34.683Z,100113.88
2022-09-15T09:36:02.247Z,100103.22
2022-09-15T09:38:35.058Z,100103.22
2022-09-15T09:41:05.063Z,100094.44
2022-09-15T09:43:32.756Z,100089.47
2022-09-15T09:45:59.848Z,100092.91
2022-09-15T09:48:28.704Z,100096.03
2022-09-15T09:50:55.774Z,100095.50
2022-09-15T09:53:33.207Z,100098.56
2022-09-15T09:56:24.399Z,100103.06
2022-09-15T09:58:54.200Z,100100.59
2022-09-15T10:01:23.537Z,100098.69
2022-09-15T10:03:50.068Z,100090.56
2022-09-15T10:06:20.611Z,100103.03
2022-09-15T10:08:58.779Z,100098.97
2022-09-15T10:11:46.610Z,100097.22
2022-09-15T10:14:37.566Z,100107.00
2022-09-15T10:17:19.711Z,100087.38
2022-09-15T10:20:01.257Z,100085.94
2022-09-15T10:22:27.735Z,100082.91
2022-09-15T10:24:54.545Z,100071.25
2022-09-15T10:27:31.992Z,100071.09
2022-09-15T10:30:31.000Z,100066.41
2022-09-15T10:33:18.193Z,100064.34
2022-09-15T10:35:45.228Z,100062.44
2022-09-15T10:38:14.032Z,100067.72
2022-09-15T10:41:11.191Z,100063.91
2022-09-15T10:43:59.068Z,100070.63
2022-09-15T10:46:42.980Z,100067.75
2022-09-15T10:49:18.436Z,100077.00
2022-09-15T10:51:59.927Z,100077.03
2022-09-15T10:54:42.671Z,100064.84
2022-09-15T11:00:05.229Z,100073.44
2022-09-15T11:02:51.112Z,100069.78
2022-09-15T11:05:22.719Z,100067.88
2022-09-15T11:08:17.179Z,100073.13
2022-09-15T11:10:51.680Z,100065.28
2022-09-15T11:13:40.395Z,100066.41
2022-09-15T11:16:34.063Z,100064.34
2022-09-15T11:19:21.508Z,100061.75
2022-09-15T11:21:53.985Z,100075.31
2022-09-15T11:24:46.812Z,100086.53
2022-09-15T11:27:23.512Z,100080.59
2022-09-15T11:30:15.595Z,100076.03
2022-09-15T11:32:54.297Z,100071.25
2022-09-15T11:35:33.330Z,100057.31
2022-09-15T11:38:21.079Z,100064.31
2022-09-15T11:41:02.693Z,100081.25
2022-09-15T11:43:34.016Z,100074.88
2022-09-15T11:46:02.333Z,100095.03
2022-09-15T11:48:40.867Z,100110.22
2022-09-15T11:51:08.215Z,100105.13
2022-09-15T11:53:48.342Z,100105.06
2022-09-15T11:56:35.010Z,100101.88
2022-09-15T11:59:22.997Z,100095.97
2022-09-15T12:02:02.006Z,100115.81
2022-09-15T12:04:32.141Z,100103.19
2022-09-15T12:07:12.267Z,100103.25
2022-09-15T12:09:41.043Z,100119.50
2022-09-15T12:12:15.501Z,100134.78
2022-09-15T12:14:44.855Z,100129.13
2022-09-15T12:17:29.779Z,100118.25
2022-09-15T12:20:06.556Z,100115.69
2022-09-15T12:23:04.442Z,100124.63
2022-09-15T12:25:42.085Z,100155.06
2022-09-15T12:28:27.018Z,100233.84
2022-09-15T12:31:30.824Z,100333.84
2022-09-15T12:33:58.535Z,100245.28
2022-09-15T12:36:42.942Z,100256.38
2022-09-15T12:39:30.132Z,100226.31
2022-09-15T12:42:25.403Z,100211.59
2022-09-15T12:45:19.906Z,100212.53
2022-09-15T12:47:54.693Z,100218.28
2022-09-15T12:50:31.620Z,100208.91
2022-09-15T12:53:14.343Z,100201.72
2022-09-15T12:56:02.361Z,100190.78
2022-09-15T12:58:41.052Z,100155.69
2022-09-15T13:01:19.632Z,100123.03
2022-09-15T13:03:46.360Z,100116.31
2022-09-15T13:06:26.478Z,100098.25
2022-09-15T13:09:02.175Z,100097.06
2022-09-15T13:11:37.400Z,100080.22
2022-09-15T13:14:04.116Z,100063.19
2022-09-15T13:16:37.514Z,100047.78
2022-09-15T13:19:11.924Z,100074.94
2022-09-15T13:21:42.129Z,100079.91
2022-09-15T13:24:19.255Z,100071.66
2022-09-15T13:26:51.327Z,100053.72
2022-09-15T13:29:20.270Z,100054.31
2022-09-15T13:32:15.451Z,100064.13
2022-09-15T13:35:09.569Z,100072.06
2022-09-15T13:38:20.569Z,100080.69
2022-09-15T13:41:02.087Z,100075.72
2022-09-15T13:43:53.286Z,100073.16
2022-09-15T13:46:57.045Z,100063.78
2022-09-15T13:49:58.904Z,100057.66
2022-09-15T13:52:37.187Z,100062.31
2022-09-15T13:55:26.322Z,100060.78
2022-09-15T14:01:05.823Z,100056.69
2022-09-15T14:03:53.474Z,100046.84
2022-09-15T14:06:24.831Z,100036.34
2022-09-15T14:08:56.268Z,100037.13
2022-09-15T14:11:30.334Z,100009.28
2022-09-15T14:13:58.463Z,99996.09
2022-09-15T14:16:33.919Z,99987.50
2022-09-15T14:19:01.905Z,99983.75
2022-09-15T14:21:34.544Z,99987.25
2022-09-15T14:24:17.153Z,99980.78
2022-09-15T14:26:43.689Z,99954.84
2022-09-15T14:29:19.934Z,99946.13
2022-09-15T14:31:48.189Z,99939.47
2022-09-15T14:34:29.303Z,99930.06
2022-09-15T14:37:06.752Z,99931.44
2022-09-15T14:39:37.742Z,99920.78
2022-09-15T14:42:32.408Z,99909.09
2022-09-15T14:48:03.693Z,99913.72
2022-09-15T14:50:33.100Z,99929.78
2022-09-15T14:53:06.526Z,99952.19
2022-09-15T14:55:45.982Z,99962.69
2022-09-15T14:58:23.152Z,99957.56
2022-09-15T15:01:02.159Z,99973.41
2022-09-15T15:03:38.118Z,99957.19
2022-09-15T15:09:01.797Z,99961.38
2022-09-15T15:11:30.232Z,99964.59
2022-09-15T15:13:57.497Z,99955.28
2022-09-15T15:16:27.060Z,99961.78
2022-09-15T15:18:56.175Z,99959.25
2022-09-15T15:21:41.664Z,99956.66
2022-09-15T15:24:16.544Z,99950.97
2022-09-15T15:26:45.300Z,99937.44
2022-09-15T15:29:39.671Z,99926.47
2022-09-15T15:32:12.029Z,99900.53
2022-09-15T15:34:38.851Z,99898.94
2022-09-15T15:37:18.294Z,99894.38
2022-09-15T15:39:46.464Z,99891.78
2022-09-15T15:42:15.499Z,99898.78
2022-09-15T15:45:13.463Z,99889.53
2022-09-15T15:47:39.918Z,99881.56
2022-09-15T15:50:14.422Z,99874.84
2022-09-15T15:52:42.169Z,99868.47
2022-09-15T15:55:12.739Z,99871.28
2022-09-15T15:57:42.055Z,99867.84
2022-09-15T16:00:23.838Z,99858.50
2022-09-15T16:02:51.940Z,99860.84
2022-09-15T16:05:20.560Z,99849.69
2022-09-15T16:07:49.489Z,99862.63
2022-09-15T16:10:20.961Z,99859.53
2022-09-15T16:12:48.035Z,99850.44
2022-09-15T16:15:19.908Z,99851.13
2022-09-15T16:17:47.363Z,99850.84
2022-09-15T16:20:19.738Z,99846.97
2022-09-15T16:22:46.335Z,99838.94
2022-09-15T16:25:23.276Z,99839.94
2022-09-15T16:27:49.762Z,99837.16
2022-09-15T16:30:16.262Z,99834.53
2022-09-15T16:32:42.882Z,99839.94
2022-09-15T16:35:26.433Z,99843.50
2022-09-15T16:37:52.964Z,99830.91
2022-09-15T16:40:19.472Z,99830.69
2022-09-15T16:42:47.365Z,99829.38
2022-09-15T16:45:40.545Z,99827.00
2022-09-15T16:48:07.928Z,99834.69
2022-09-15T16:50:35.063Z,99834.59
2022-09-15T16:53:01.643Z,99825.91
2022-09-15T16:55:35.799Z,99824.53
2022-09-15T16:58:04.170Z,99820.13
2022-09-15T17:00:33.365Z,99818.91
2022-09-15T17:02:59.927Z,99827.81
2022-09-15T17:05:29.922Z,99823.41
2022-09-15T17:07:56.556Z,99829.88
2022-09-15T17:10:23.355Z,99820.78
2022-09-15T17:12:50.181Z,99834.09
2022-09-15T17:15:27.118Z,99836.66
2022-09-15T17:17:54.570Z,99839.78
2022-09-15T17:20:22.499Z,99843.66
2022-09-15T17:22:49.803Z,99841.47
2022-09-15T17:25:38.528Z,99848.38
2022-09-15T17:28:05.227Z,99851.34
2022-09-15T17:30:32.544Z,99845.38
2022-09-15T17:33:07.376Z,99838.75
2022-09-15T17:35:35.890Z,99848.66
2022-09-15T17:38:04.272Z,99837.28
2022-09-15T17:40:31.520Z,99846.69
2022-09-15T17:42:58.325Z,99842.34
2022-09-15T17:45:35.531Z,99840.41
2022-09-15T17:48:03.746Z,99848.00
2022-09-15T17:50:32.814Z,99850.69
2022-09-15T17:53:00.126Z,99845.91
2022-09-15T17:55:28.536Z,99848.28
2022-09-15T17:57:57.132Z,99857.03
2022-09-15T18:00:25.723Z,99854.06
2022-09-15T18:02:54.738Z,99859.06
2022-09-15T18:05:27.274Z,99855.13
2022-09-15T18:07:55.450Z,99861.03
2022-09-15T18:10:22.463Z,99859.16
2022-09-15T18:12:53.555Z,99859.53
2022-09-15T18:15:26.042Z,99864.16
2022-09-15T18:17:55.498Z,99868.28
2022-09-15T18:20:24.960Z,99870.34
2022-09-15T18:22:51.936Z,99870.63
2022-09-15T18:25:30.857Z,99879.75
2022-09-15T18:27:58.659Z,99884.78
2022-09-15T18:30:28.511Z,99889.41
2022-09-15T18:32:55.653Z,99897.84
2022-09-15T18:35:22.810Z,99902.22
2022-09-15T18:37:55.162Z,99907.38
2022-09-15T18:40:21.815Z,99913.72
2022-09-15T18:42:49.068Z,99924.06
2022-09-15T18:45:17.889Z,99923.13
2022-09-15T18:47:48.763Z,99924.94
2022-09-15T18:50:17.160Z,99927.75
2022-09-15T18:52:44.197Z,99933.00
2022-09-15T18:55:17.866Z,99930.34
2022-09-15T18:57:45.027Z,99931.72
2022-09-15T19:00:23.947Z,99926.41
2022-09-15T19:03:02.345Z,99940.16
2022-09-15T19:05:30.027Z,99943.25
2022-09-15T19:07:56.732Z,99941.28
2022-09-15T19:10:23.592Z,99939.75
2022-09-15T19:12:50.066Z,99937.44
2022-09-15T19:15:16.645Z,99929.44
2022-09-15T19:17:44.317Z,99943.63
2022-09-15T19:20:14.207Z,99932.13
2022-09-15T19:22:41.482Z,99943.88
2022-09-15T19:25:09.673Z,99936.22
2022-09-15T19:27:38.150Z,99944.59
2022-09-15T19:30:05.750Z,99945.75
2022-09-15T19:32:33.098Z,99941.69
2022-09-15T19:34:59.528Z,99944.91
2022-09-15T19:37:26.028Z,99948.47
2022-09-15T19:39:52.621Z,99932.59
2022-09-15T19:42:19.171Z,99942.84
2022-09-15T19:44:46.050Z,99941.06
2022-09-15T19:47:12.515Z,99941.47
2022-09-15T19:49:39.024Z,99950.72
2022-09-15T19:52:06.497Z,99955.06
2022-09-15T19:54:34.526Z,99950.66
2022-09-15T19:57:01.488Z,99942.22
2022-09-15T19:59:31.271Z,99937.88
2022-09-15T20:01:59.108Z,99946.88
2022-09-15T20:07:10.016Z,99935.47
2022-09-15T20:09:36.481Z,99937.28
2022-09-15T20:12:03.588Z,99937.88
2022-09-15T20:14:31.362Z,99940.69
2022-09-15T20:17:00.987Z,99943.16
2022-09-15T20:19:28.072Z,99945.50
2022-09-15T20:21:54.456Z,99944.44
2022-09-15T20:24:22.189Z,99948.19
2022-09-15T20:26:48.705Z,99950.19
2022-09-15T20:29:15.831Z,99953.59
2022-09-15T20:31:42.564Z,99965.81
2022-09-15T20:34:09.093Z,99960.00
2022-09-15T20:36:38.398Z,99968.03
2022-09-15T20:39:08.786Z,99966.13
2022-09-15T20:41:35.299Z,99967.88
2022-09-15T20:44:02.060Z,99968.09
2022-09-15T20:46:31.562Z,99964.22
2022-09-15T20:48:58.002Z,99956.78
2022-09-15T20:51:26.844Z,99975.16
2022-09-15T20:53:55.990Z,99960.72
2022-09-15T20:56:25.551Z,99971.94
2022-09-15T20:58:53.914Z,99970.75
2022-09-15T21:01:25.729Z,99959.88
2022-09-15T21:03:53.410Z,99958.44
2022-09-15T21:06:22.146Z,99968.16
2022-09-15T21:08:49.691Z,99968.81
2022-09-15T21:11:17.916Z,99968.91
2022-09-15T21:13:44.586Z,99968.56
2022-09-15T21:16:16.880Z,99968.47
2022-09-15T21:18:44.659Z,99963.66
2022-09-15T21:21:15.019Z,99960.50
2022-09-15T21:23:44.963Z,99957.00
2022-09-15T21:26:14.799Z,99954.75
2022-09-15T21:28:43.431Z,99952.66
2022-09-15T21:31:16.096Z,99957.69
2022-09-15T21:33:43.559Z,99959.13
2022-09-15T21:36:12.595Z,99962.53
2022-09-15T21:38:40.583Z,99960.47
2022-09-15T21:41:09.779Z,99957.47
2022-09-15T21:43:39.272Z,99958.56
2022-09-15T21:46:08.504Z,99947.19
2022-09-15T21:48:35.895Z,99943.94
2022-09-15T21:51:04.200Z,99946.81
2022-09-15T21:53:32.437Z,99945.72
2022-09-15T21:56:06.783Z,99944.47
2022-09-15T21:58:40.295Z,99941.63
2022-09-15T22:01:21.096Z,99942.03
2022-09-15T22:03:50.981Z,99941.47
2022-09-15T22:06:18.584Z,99946.75
2022-09-15T22:08:45.325Z,99944.25
2022-09-15T22:11:11.792Z,99938.81
2022-09-15T22:13:43.624Z,99936.72
2022-09-15T22:16:18.438Z,99929.25
2022-09-15T22:18:45.801Z,99939.19
2022-09-15T22:21:12.650Z,99927.84
2022-09-15T22:23:39.998Z,99925.59
2022-09-15T22:26:17.799Z,99933.78
2022-09-15T22:28:44.823Z,99929.66
2022-09-15T22:31:13.562Z,99929.72
2022-09-15T22:33:43.451Z,99933.28
2022-09-15T22:36:11.693Z,99935.78
2022-09-15T22:38:38.672Z,99939.66
2022-09-15T22:41:08.978Z,99937.50
2022-09-15T22:43:36.293Z,99937.97
2022-09-15T22:46:03.091Z,99929.63
2022-09-15T22:48:29.808Z,99925.31
2022-09-15T22:50:56.419Z,99928.09
2022-09-15T22:53:23.501Z,99928.97
2022-09-15T22:55:51.478Z,99936.50
2022-09-15T22:58:17.985Z,99930.13
2022-09-15T23:00:44.617Z,99927.34
2022-09-15T23:03:11.816Z,99929.88
2022-09-15T23:05:38.593Z,99929.97
2022-09-15T23:08:05.177Z,99927.56
2022-09-15T23:10:32.753Z,99929.44
2022-09-15T23:12:59.707Z,99930.41
2022-09-15T23:15:26.386Z,99929.41
2022-09-15T23:17:52.870Z,99930.53
2022-09-15T23:20:19.309Z,99925.00
2022-09-15T23:22:45.724Z,99923.94
2022-09-15T23:25:12.180Z,99918.19
2022-09-15T23:27:38.638Z,99918.03
2022-09-15T23:30:05.466Z,99919.81
2022-09-15T23:32:32.029Z,99912.72
2022-09-15T23:34:58.479Z,99908.75
2022-09-15T23:37:24.984Z,99901.69
2022-09-15T23:39:52.342Z,99907.16
2022-09-15T23:42:19.179Z,99908.84
2022-09-15T23:44:45.820Z,99906.84
2022-09-15T23:47:12.293Z,99906.84
2022-09-15T23:49:38.738Z,99909.88
2022-09-15T23:52:05.151Z,99904.84
2022-09-15T23:54:31.658Z,99909.53
2022-09-15T23:56:58.149Z,99916.03
2022-09-15T23:59:24.748Z,99911.13
